createdAt,value
2023-01-07T00:02:32.154Z,9.50
2023-01-07T00:07:33.475Z,9.48
2023-01-07T00:12:34.873Z,9.43
2023-01-07T00:17:36.262Z,9.32
2023-01-07T00:22:37.576Z,9.31
2023-01-07T00:27:38.895Z,9.28
2023-01-07T00:32:58.920Z,9.21
2023-01-07T00:38:00.288Z,9.17
2023-01-07T00:43:01.723Z,9.10
2023-01-07T00:48:04.231Z,9.12
2023-01-07T00:53:05.850Z,9.14
2023-01-07T00:58:07.248Z,9.19
2023-01-07T01:03:10.298Z,9.24
2023-01-07T01:08:11.689Z,9.06
2023-01-07T01:13:15.453Z,8.97
2023-01-07T01:18:18.108Z,9.00
2023-01-07T01:23:19.446Z,8.99
2023-01-07T01:28:20.801Z,8.96
2023-01-07T01:33:22.108Z,9.02
2023-01-07T01:38:23.437Z,9.08
2023-01-07T01:43:32.398Z,9.17
2023-01-07T01:48:35.668Z,9.24
2023-01-07T01:53:37.623Z,9.23
2023-01-07T01:58:41.850Z,9.16
2023-01-07T02:03:43.476Z,9.11
2023-01-07T02:08:44.789Z,9.24
2023-01-07T02:14:01.421Z,9.30
2023-01-07T02:19:25.274Z,9.29
2023-01-07T02:24:26.555Z,9.32
2023-01-07T02:29:33.852Z,9.27
2023-01-07T02:34:41.385Z,9.29
2023-01-07T02:39:51.813Z,9.30
2023-01-07T02:45:22.536Z,9.28
2023-01-07T02:50:23.835Z,9.27
2023-01-07T02:55:38.057Z,9.31
2023-01-07T03:00:45.430Z,9.34
2023-01-07T03:05:52.771Z,9.39
2023-01-07T03:10:57.166Z,9.42
2023-01-07T03:16:02.365Z,9.41
2023-01-07T03:21:05.886Z,9.51
2023-01-07T03:26:08.728Z,9.50
2023-01-07T03:31:12.285Z,9.53
2023-01-07T03:36:16.964Z,9.55
2023-01-07T03:41:37.085Z,9.59
2023-01-07T03:46:38.515Z,9.49
2023-01-07T03:51:39.879Z,9.39
2023-01-07T03:56:41.257Z,9.32
2023-01-07T04:01:42.746Z,9.23
2023-01-07T04:06:44.171Z,9.14
2023-01-07T04:11:45.573Z,9.12
2023-01-07T04:16:47.011Z,9.07
2023-01-07T04:21:48.359Z,9.05
2023-01-07T04:26:49.751Z,9.04
2023-01-07T04:31:51.095Z,8.99
2023-01-07T04:36:52.414Z,8.95
2023-01-07T04:41:53.746Z,8.92
2023-01-07T04:46:55.079Z,8.95
2023-01-07T04:51:56.417Z,8.95
2023-01-07T04:56:57.793Z,8.99
2023-01-07T05:01:59.256Z,9.00
2023-01-07T05:07:00.678Z,9.07
2023-01-07T05:12:02.002Z,9.08
2023-01-07T05:17:03.453Z,9.06
2023-01-07T05:22:04.788Z,9.07
2023-01-07T05:27:06.148Z,9.10
2023-01-07T05:32:07.450Z,9.10
2023-01-07T05:37:08.826Z,9.09
2023-01-07T05:42:10.184Z,9.06
2023-01-07T05:47:11.522Z,9.07
2023-01-07T05:52:12.879Z,9.08
2023-01-07T05:57:14.186Z,9.06
2023-01-07T06:02:15.512Z,9.06
2023-01-07T06:07:16.902Z,9.02
2023-01-07T06:12:18.262Z,8.96
2023-01-07T06:17:19.621Z,8.95
2023-01-07T06:22:20.949Z,8.90
2023-01-07T06:27:22.303Z,8.92
2023-01-07T06:32:23.717Z,8.84
2023-01-07T06:37:25.029Z,8.85
2023-01-07T06:42:26.783Z,8.83
2023-01-07T06:47:28.099Z,8.81
2023-01-07T06:52:29.418Z,8.78
2023-01-07T06:57:30.739Z,8.73
2023-01-07T07:02:32.193Z,8.71
2023-01-07T07:07:33.695Z,8.70
2023-01-07T07:12:35.621Z,8.68
2023-01-07T07:17:37.041Z,8.69
2023-01-07T07:22:38.410Z,8.68
2023-01-07T07:27:39.770Z,8.67
2023-01-07T07:32:41.326Z,8.70
2023-01-07T07:37:42.717Z,8.68
2023-01-07T07:43:10.356Z,8.71
2023-01-07T07:48:06.275Z,8.69
2023-01-07T07:53:10.111Z,8.71
2023-01-07T07:58:11.957Z,8.73
2023-01-07T08:03:13.280Z,8.70
2023-01-07T08:08:14.903Z,8.71
2023-01-07T08:13:16.235Z,8.75
2023-01-07T08:18:19.070Z,8.77
2023-01-07T08:23:20.386Z,8.80
2023-01-07T08:28:21.756Z,8.86
2023-01-07T08:33:23.095Z,8.91
2023-01-07T08:38:25.389Z,8.92
2023-01-07T08:43:27.124Z,8.94
2023-01-07T08:48:28.566Z,8.94
2023-01-07T08:53:29.922Z,8.92
2023-01-07T08:58:31.235Z,8.96
2023-01-07T09:03:32.823Z,9.11
2023-01-07T09:08:34.147Z,9.18
2023-01-07T09:13:35.487Z,9.35
2023-01-07T09:18:36.853Z,9.62
2023-01-07T09:23:38.314Z,9.77
2023-01-07T09:28:39.633Z,9.89
2023-01-07T09:33:40.997Z,9.99
2023-01-07T09:38:42.441Z,10.08
2023-01-07T09:44:00.565Z,10.10
2023-01-07T09:49:03.767Z,10.52
2023-01-07T09:54:08.728Z,11.21
2023-01-07T09:59:10.581Z,12.21
2023-01-07T10:04:30.753Z,13.37
2023-01-07T10:09:35.276Z,14.48
2023-01-07T10:14:42.608Z,14.17
2023-01-07T10:19:53.046Z,13.80
2023-01-07T10:24:57.438Z,13.73
2023-01-07T10:30:01.362Z,12.12
2023-01-07T10:35:03.826Z,11.61
2023-01-07T10:40:23.661Z,11.56
2023-01-07T10:45:31.144Z,11.39
2023-01-07T10:50:51.476Z,11.35
2023-01-07T10:55:59.030Z,11.04
2023-01-07T11:01:00.674Z,11.06
2023-01-07T11:06:07.479Z,11.22
2023-01-07T11:11:20.172Z,11.14
2023-01-07T11:16:24.650Z,11.20
2023-01-07T11:21:44.745Z,10.97
2023-01-07T11:26:46.522Z,11.16
2023-01-07T11:31:59.073Z,11.19
2023-01-07T11:37:00.956Z,11.05
2023-01-07T11:42:33.017Z,10.92
2023-01-07T11:47:34.796Z,10.92
2023-01-07T11:52:36.192Z,11.00
2023-01-07T11:57:37.536Z,10.84
2023-01-07T12:02:38.883Z,10.80
2023-01-07T12:07:44.566Z,10.82
2023-01-07T12:12:45.910Z,10.64
2023-01-07T12:17:49.149Z,10.80
2023-01-07T12:23:13.836Z,10.78
2023-01-07T12:28:19.520Z,10.75
2023-01-07T12:33:20.830Z,10.74
2023-01-07T12:38:25.810Z,10.78
2023-01-07T12:43:36.644Z,10.76
2023-01-07T12:48:37.960Z,10.74
2023-01-07T12:53:44.140Z,10.85
2023-01-07T12:58:53.085Z,10.83
2023-01-07T13:03:54.370Z,10.84
2023-01-07T13:09:07.301Z,10.91
2023-01-07T13:14:14.582Z,10.97
2023-01-07T13:19:16.013Z,11.01
2023-01-07T13:24:55.806Z,11.00
2023-01-07T13:29:58.514Z,10.80
2023-01-07T13:35:09.322Z,10.79
2023-01-07T13:40:10.709Z,10.75
2023-01-07T13:45:29.060Z,10.79
2023-01-07T13:50:35.718Z,10.80
2023-01-07T13:55:38.957Z,10.77
2023-01-07T14:00:40.291Z,10.84
2023-01-07T14:05:41.663Z,10.81
2023-01-07T14:10:51.296Z,10.81
2023-01-07T14:15:58.833Z,10.73
2023-01-07T14:21:09.612Z,10.70
2023-01-07T14:26:34.312Z,10.69
2023-01-07T14:31:35.970Z,10.60
2023-01-07T14:36:55.784Z,10.64
2023-01-07T14:42:15.969Z,10.64
2023-01-07T14:47:40.543Z,10.60
2023-01-07T14:53:00.639Z,10.51
2023-01-07T14:58:17.469Z,10.47
2023-01-07T15:03:25.006Z,10.46
2023-01-07T15:08:47.524Z,10.45
2023-01-07T15:14:23.052Z,10.37
2023-01-07T15:19:24.843Z,10.33
2023-01-07T15:24:35.087Z,10.22
2023-01-07T15:29:53.377Z,10.16
2023-01-07T15:34:54.697Z,9.99
2023-01-07T15:39:56.832Z,9.88
2023-01-07T15:44:59.363Z,9.79
2023-01-07T15:50:19.654Z,9.62
2023-01-07T15:55:29.384Z,9.44
2023-01-07T16:00:31.447Z,9.42
2023-01-07T16:05:32.874Z,9.31
2023-01-07T16:10:35.689Z,9.30
2023-01-07T16:15:37.800Z,9.35
2023-01-07T16:20:49.810Z,9.30
2023-01-07T16:25:54.008Z,9.16
2023-01-07T16:30:56.032Z,9.05
2023-01-07T16:35:58.826Z,9.02
2023-01-07T16:41:00.270Z,8.87
2023-01-07T16:46:20.254Z,8.96
2023-01-07T16:51:54.177Z,8.88
2023-01-07T16:57:05.819Z,8.76
2023-01-07T17:02:27.424Z,8.85
2023-01-07T17:07:28.908Z,8.78
2023-01-07T17:12:36.259Z,8.73
2023-01-07T17:17:37.655Z,8.72
2023-01-07T17:22:39.650Z,8.74
2023-01-07T17:27:50.554Z,8.84
2023-01-07T17:32:52.988Z,8.79
2023-01-07T17:37:54.689Z,8.84
2023-01-07T17:43:14.615Z,8.91
2023-01-07T17:48:15.899Z,8.92
2023-01-07T17:53:22.101Z,8.89
2023-01-07T17:58:31.038Z,8.86
2023-01-07T18:03:32.536Z,8.86
2023-01-07T18:08:33.856Z,8.87
2023-01-07T18:13:35.265Z,8.90
2023-01-07T18:18:36.586Z,8.88
2023-01-07T18:23:38.595Z,8.88
2023-01-07T18:28:40.549Z,8.85
2023-01-07T18:33:42.295Z,8.86
2023-01-07T18:38:43.608Z,8.94
2023-01-07T18:43:44.980Z,8.93
2023-01-07T18:48:46.303Z,8.96
2023-01-07T18:53:47.619Z,8.99
2023-01-07T18:58:52.493Z,8.97
2023-01-07T19:03:53.944Z,8.97
2023-01-07T19:08:56.418Z,8.90
2023-01-07T19:13:57.800Z,8.88
2023-01-07T19:18:59.140Z,8.90
2023-01-07T19:24:03.648Z,8.93
2023-01-07T19:29:05.025Z,9.00
2023-01-07T19:34:06.515Z,9.12
2023-01-07T19:39:07.844Z,9.16
2023-01-07T19:44:09.631Z,9.25
2023-01-07T19:49:11.783Z,9.21
2023-01-07T19:54:16.676Z,9.22
2023-01-07T19:59:18.003Z,9.16
2023-01-07T20:04:19.359Z,9.13
2023-01-07T20:09:21.039Z,9.21
2023-01-07T20:14:22.351Z,9.20
2023-01-07T20:19:24.060Z,9.18
2023-01-07T20:24:25.501Z,9.34
2023-01-07T20:29:26.882Z,9.48
2023-01-07T20:34:28.198Z,9.72
2023-01-07T20:39:29.529Z,9.64
2023-01-07T20:44:30.855Z,9.72
2023-01-07T20:49:32.158Z,10.06
2023-01-07T20:54:33.479Z,10.07
2023-01-07T20:59:34.802Z,10.15
2023-01-07T21:04:36.717Z,10.07
2023-01-07T21:09:38.063Z,10.25
2023-01-07T21:14:39.378Z,10.32
2023-01-07T21:19:40.704Z,10.37
2023-01-07T21:24:41.996Z,10.43
2023-01-07T21:29:43.428Z,10.33
2023-01-07T21:34:44.778Z,10.35
2023-01-07T21:39:46.157Z,10.28
2023-01-07T21:44:47.778Z,10.31
2023-01-07T21:49:53.187Z,10.25
2023-01-07T21:54:56.068Z,10.33
2023-01-07T21:59:57.391Z,10.30
2023-01-07T22:04:58.711Z,10.23
2023-01-07T22:10:00.004Z,10.18
2023-01-07T22:15:01.395Z,10.15
2023-01-07T22:20:02.824Z,10.15
2023-01-07T22:25:04.320Z,10.12
2023-01-07T22:30:06.562Z,10.09
2023-01-07T22:35:08.097Z,10.06
2023-01-07T22:40:09.762Z,10.12
2023-01-07T22:45:14.921Z,10.10
2023-01-07T22:50:17.136Z,10.08
2023-01-07T22:55:18.957Z,10.06
2023-01-07T23:00:52.702Z,10.04
2023-01-07T23:05:54.030Z,10.07
2023-01-07T23:10:55.366Z,10.07
2023-01-07T23:15:59.807Z,10.03
2023-01-07T23:21:03.664Z,9.95
2023-01-07T23:26:05.073Z,9.92
2023-01-07T23:31:06.379Z,9.87
2023-01-07T23:36:09.061Z,9.86
2023-01-07T23:41:11.406Z,9.83
2023-01-07T23:46:12.817Z,9.86
2023-01-07T23:51:18.566Z,9.83
2023-01-07T23:56:20.635Z,9.82
